Time;durP1;ratioP1;P1;durP2;ratioP2;P2;SDS_P1;SDS_P2;PMS_P1;PMS_P2;Temp;Humidity;BMP_temperature;BMP_pressure;BME280_temperature;BME280_humidity;BME280_pressure;Samples;Min_cycle;Max_cycle;Signal;HPM_P1;HPM_P2
2021/12/03 00:00:38;;;;;;;13.40;8.77;;;;;;;-0.78;100.00;95455.56;5025970;28;20456;-75
2021/12/03 00:03:04;;;;;;;;;;;;;;;-0.79;100.00;95465.06;5008974;28;20480;-75
2021/12/03 00:05:33;;;;;;;13.67;8.23;;;;;;;-0.85;100.00;95473.22;5025717;28;19913;-76
2021/12/03 00:07:58;;;;;;;12.10;7.77;;;;;;;-0.81;100.00;95469.50;5028872;28;20487;-75
2021/12/03 00:10:26;;;;;;;12.03;8.43;;;;;;;-0.87;100.00;95472.53;5009356;28;20472;-76
2021/12/03 00:12:53;;;;;;;11.00;6.97;;;;;;;-0.96;100.00;95480.91;5004546;28;20034;-76
2021/12/03 00:15:20;;;;;;;9.43;6.30;;;;;;;-0.99;100.00;95488.88;5020971;28;20472;-76
2021/12/03 00:17:46;;;;;;;12.50;7.20;;;;;;;-1.03;100.00;95484.88;5022821;28;20486;-76
2021/12/03 00:20:14;;;;;;;10.93;5.77;;;;;;;-1.07;100.00;95488.59;5034166;28;20547;-76
2021/12/03 00:22:46;;;;;;;9.10;5.80;;;;;;;-1.01;100.00;95498.47;5031461;28;20033;-76
2021/12/03 00:25:12;;;;;;;10.87;6.97;;;;;;;-1.09;100.00;95499.00;5012189;28;20514;-76
2021/12/03 00:27:37;;;;;;;11.67;7.63;;;;;;;-1.12;100.00;95506.97;5034255;28;20420;-76
2021/12/03 00:30:06;;;;;;;11.73;7.60;;;;;;;-1.13;100.00;95515.63;5002577;28;20583;-76
2021/12/03 00:32:32;;;;;;;11.87;7.43;;;;;;;-1.08;100.00;95523.06;5019563;28;20025;-76
2021/12/03 00:34:58;;;;;;;9.70;6.17;;;;;;;-1.14;100.00;95534.63;5017883;28;20575;-76
2021/12/03 00:37:24;;;;;;;11.47;7.13;;;;;;;-1.14;100.00;95534.63;5022272;28;20048;-76
2021/12/03 00:39:51;;;;;;;10.67;6.33;;;;;;;-1.07;100.00;95540.19;5027472;28;20482;-75
2021/12/03 00:42:18;;;;;;;11.80;7.40;;;;;;;-1.09;100.00;95542.88;5027354;28;20057;-76
2021/12/03 00:44:50;;;;;;;11.67;7.83;;;;;;;-1.07;100.00;95559.09;5012019;28;20459;-76
2021/12/03 00:47:16;;;;;;;12.13;7.23;;;;;;;-1.08;100.00;95559.16;5015834;28;21011;-76
2021/12/03 00:49:42;;;;;;;12.03;7.53;;;;;;;-1.07;100.00;95568.59;5004373;28;21030;-76
2021/12/03 00:52:08;;;;;;;11.63;8.00;;;;;;;-1.07;100.00;95566.00;4997882;28;20522;-76
2021/12/03 00:54:34;;;;;;;12.90;8.00;;;;;;;-1.13;100.00;95566.41;5022507;28;20028;-76
2021/12/03 00:57:00;;;;;;;12.03;7.30;;;;;;;-1.17;100.00;95575.28;5015424;28;20510;-75
2021/12/03 00:59:26;;;;;;;11.43;7.60;;;;;;;-1.15;100.00;95573.44;5023589;28;21806;-76
2021/12/03 01:01:51;;;;;;;11.93;6.80;;;;;;;-1.13;100.00;95572.41;5024674;28;20460;-76
2021/12/03 01:04:17;;;;;;;12.10;7.10;;;;;;;-1.12;100.00;95581.78;5030739;28;20048;-76
2021/12/03 01:06:43;;;;;;;11.63;6.53;;;;;;;-1.06;100.00;95583.94;5018758;28;20029;-76
2021/12/03 01:09:08;;;;;;;12.03;6.67;;;;;;;-1.07;100.00;95591.81;5023863;28;20029;-76
2021/12/03 01:11:34;;;;;;;12.53;6.90;;;;;;;-1.06;100.00;95598.63;5027319;28;20108;-76
2021/12/03 01:14:00;;;;;;;13.67;7.93;;;;;;;-0.95;100.00;95603.84;5016442;28;20446;-76
2021/12/03 01:16:28;;;;;;;10.30;6.60;;;;;;;-1.08;100.00;95614.19;5036167;28;20072;-76
2021/12/03 01:18:54;;;;;;;12.53;6.93;;;;;;;-1.01;100.00;95606.84;5024534;28;20487;-76
2021/12/03 01:21:20;;;;;;;13.23;6.43;;;;;;;-1.02;100.00;95605.22;5012749;28;20445;-76
2021/12/03 01:23:47;;;;;;;12.37;5.77;;;;;;;-1.10;100.00;95605.75;5025737;28;20037;-76
2021/12/03 01:26:14;;;;;;;10.47;6.50;;;;;;;-1.04;100.00;95615.66;5019195;28;20560;-76
2021/12/03 01:28:40;;;;;;;9.93;5.50;;;;;;;-1.09;100.00;95607.38;5013381;28;20452;-76
2021/12/03 01:31:06;;;;;;;10.57;5.70;;;;;;;-1.04;100.00;95613.06;5002842;28;20506;-76
2021/12/03 01:33:32;;;;;;;11.83;6.60;;;;;;;-0.99;100.00;95623.06;5015212;28;20550;-75
2021/12/03 01:35:58;;;;;;;9.23;5.37;;;;;;;-0.95;100.00;95625.31;5006894;28;20125;-76
2021/12/03 01:38:24;;;;;;;13.57;6.97;;;;;;;-1.05;100.00;95623.47;5009960;28;20038;-76
2021/12/03 01:40:50;;;;;;;9.80;5.93;;;;;;;-1.09;100.00;95629.78;5013711;28;20524;-76
2021/12/03 01:43:22;;;;;;;10.57;6.67;;;;;;;-1.05;100.00;95628.63;5011181;28;20042;-76
2021/12/03 01:45:50;;;;;;;10.30;6.33;;;;;;;-1.05;100.00;95629.47;5007898;28;20638;-76
2021/12/03 01:48:16;;;;;;;10.80;6.43;;;;;;;-1.05;100.00;95636.38;5013396;28;20459;-76
2021/12/03 01:50:44;;;;;;;12.43;6.40;;;;;;;-1.09;100.00;95632.34;5009719;28;20649;-76
2021/12/03 01:53:12;;;;;;;13.27;6.80;;;;;;;-1.08;100.00;95634.00;5021736;28;20034;-76
2021/12/03 01:55:38;;;;;;;16.83;8.67;;;;;;;-1.11;100.00;95631.63;5002266;28;20519;-75
2021/12/03 01:58:04;;;;;;;10.80;6.40;;;;;;;-1.09;100.00;95629.78;5009972;28;20476;-76
2021/12/03 02:00:34;;;;;;;10.63;6.50;;;;;;;-1.09;100.00;95630.59;5007908;28;20480;-76
2021/12/03 02:03:00;;;;;;;9.30;6.10;;;;;;;-1.12;100.00;95624.81;5027241;28;20489;-76
2021/12/03 02:05:27;;;;;;;11.17;7.57;;;;;;;-1.06;100.00;95629.56;5002993;28;20514;-76
2021/12/03 02:07:53;;;;;;;13.50;6.97;;;;;;;-1.20;100.00;95630.50;5023920;28;20044;-76
2021/12/03 02:10:21;;;;;;;9.97;6.17;;;;;;;-1.19;100.00;95634.72;5014591;28;20456;-76
2021/12/03 02:12:47;;;;;;;9.90;6.50;;;;;;;-1.07;100.00;95633.09;5023585;28;20497;-76
2021/12/03 02:15:13;;;;;;;13.40;7.20;;;;;;;-1.20;100.00;95651.97;5025260;28;20526;-76
2021/12/03 02:17:39;;;;;;;12.33;7.33;;;;;;;-1.24;100.00;95647.94;5013388;28;20072;-76
2021/12/03 02:20:10;;;;;;;10.57;6.07;;;;;;;-1.16;100.00;95650.00;5005091;28;20472;-76
2021/12/03 02:22:37;;;;;;;11.90;7.27;;;;;;;-1.24;100.00;95650.53;5024082;28;20526;-76
2021/12/03 02:25:06;;;;;;;10.53;6.13;;;;;;;-1.07;100.00;95654.56;5023503;28;20823;-75
2021/12/03 02:27:32;;;;;;;12.33;7.70;;;;;;;-1.20;100.00;95657.13;4997922;28;21029;-76
2021/12/03 02:29:58;;;;;;;12.43;6.27;;;;;;;-1.14;100.00;95655.06;5025044;28;20489;-76
2021/12/03 02:32:24;;;;;;;12.53;6.90;;;;;;;-1.17;100.00;95663.00;5019150;28;20037;-76
2021/12/03 02:34:49;;;;;;;11.37;6.90;;;;;;;-1.13;100.00;95654.97;5028331;28;20025;-76
2021/12/03 02:37:15;;;;;;;10.73;6.57;;;;;;;-1.23;100.00;95659.91;5009590;28;20577;-75
2021/12/03 02:39:41;;;;;;;9.87;6.20;;;;;;;-1.23;100.00;95665.06;5011890;28;20124;-76
2021/12/03 02:42:07;;;;;;;9.50;5.33;;;;;;;-1.16;100.00;95664.66;5021232;28;20113;-76
2021/12/03 02:44:33;;;;;;;10.83;6.77;;;;;;;-1.25;100.00;95672.06;5023158;28;20108;-76
2021/12/03 02:46:58;;;;;;;11.43;6.97;;;;;;;-1.19;100.00;95670.84;5022295;28;20048;-76
2021/12/03 02:49:24;;;;;;;11.40;6.70;;;;;;;-1.05;100.00;95670.75;5016514;28;20028;-75
2021/12/03 02:51:50;;;;;;;11.40;6.60;;;;;;;-1.03;100.00;95675.81;5005318;28;20390;-76
2021/12/03 02:54:16;;;;;;;10.97;7.57;;;;;;;-1.11;100.00;95667.75;5025708;28;20140;-76
2021/12/03 02:56:41;;;;;;;13.60;6.50;;;;;;;-1.15;100.00;95679.22;5027510;28;20093;-77
2021/12/03 02:59:07;;;;;;;10.73;6.80;;;;;;;-1.14;100.00;95683.44;5039988;28;20033;-76
2021/12/03 03:01:33;;;;;;;12.80;7.07;;;;;;;-1.17;100.00;95687.06;5031570;28;20124;-76
2021/12/03 03:03:59;;;;;;;11.57;6.90;;;;;;;-1.25;100.00;95684.97;5018453;28;20048;-75
2021/12/03 03:06:25;;;;;;;12.17;7.13;;;;;;;-1.27;100.00;95688.59;5012471;28;20204;-75
2021/12/03 03:08:51;;;;;;;11.70;6.83;;;;;;;-1.30;100.00;95689.63;5019695;28;20550;-76
2021/12/03 03:11:18;;;;;;;11.50;6.73;;;;;;;-1.27;100.00;95689.41;5030572;28;20482;-75
2021/12/03 03:13:44;;;;;;;11.70;6.77;;;;;;;-1.33;100.00;95689.81;5020417;28;20029;-75
2021/12/03 03:16:16;;;;;;;11.63;6.27;;;;;;;-1.37;100.00;95685.78;5003760;28;20496;-75
2021/12/03 03:18:43;;;;;;;11.50;6.93;;;;;;;-1.39;100.00;95692.78;5036168;28;20067;-75
2021/12/03 03:21:08;;;;;;;10.90;6.90;;;;;;;-1.36;100.00;95684.84;5024328;28;20461;-76
2021/12/03 03:23:35;;;;;;;11.30;6.63;;;;;;;-1.43;100.00;95686.19;5015697;28;20478;-76
2021/12/03 03:26:02;;;;;;;10.43;5.87;;;;;;;-1.35;100.00;95685.66;5026570;28;20044;-75
2021/12/03 03:28:39;;;;;;;9.50;5.87;;;;;;;-1.44;100.00;95682.78;5005159;28;21326;-75
2021/12/03 03:31:07;;;;;;;10.23;5.93;;;;;;;-1.40;100.00;95693.72;5019496;28;21376;-75
2021/12/03 03:33:33;;;;;;;9.50;5.33;;;;;;;-1.34;100.00;95697.63;5006680;28;20519;-76
2021/12/03 03:35:59;;;;;;;10.17;5.17;;;;;;;-1.31;100.00;95703.44;5007801;28;21037;-76
2021/12/03 03:38:27;;;;;;;11.40;6.37;;;;;;;-1.34;100.00;95708.81;5033589;28;20477;-75
2021/12/03 03:40:53;;;;;;;11.60;6.67;;;;;;;-1.31;100.00;95706.03;5005368;28;20087;-75
2021/12/03 03:43:19;;;;;;;14.90;8.03;;;;;;;-1.40;100.00;95714.34;5021700;28;20543;-75
2021/12/03 03:45:46;;;;;;;10.80;6.80;;;;;;;-1.37;100.00;95709.00;5007340;28;20537;-76
2021/12/03 03:48:12;;;;;;;13.80;7.27;;;;;;;-1.42;100.00;95711.03;5024740;28;20430;-75
2021/12/03 03:50:38;;;;;;;12.40;8.63;;;;;;;-1.46;100.00;95717.31;5020169;28;20459;-75
2021/12/03 03:53:04;;;;;;;14.20;8.77;;;;;;;-1.38;100.00;95724.56;5012758;28;20391;-75
2021/12/03 03:55:30;;;;;;;13.50;8.23;;;;;;;-1.40;100.00;95726.44;5021113;28;20468;-75
2021/12/03 03:57:59;;;;;;;12.97;8.43;;;;;;;-1.28;100.00;95720.47;5028083;28;20061;-75
2021/12/03 04:00:31;;;;;;;13.23;7.03;;;;;;;-1.34;100.00;95726.84;5009085;28;20464;-76
2021/12/03 04:02:57;;;;;;;12.18;7.38;;;;;;;-1.29;100.00;95727.38;5022758;28;20459;-75
2021/12/03 04:05:23;;;;;;;11.10;6.43;;;;;;;-1.38;100.00;95732.28;5013984;28;20087;-75
2021/12/03 04:07:49;;;;;;;12.13;7.70;;;;;;;-1.43;100.00;95724.88;5014554;28;20026;-76
2021/12/03 04:10:15;;;;;;;15.70;9.03;;;;;;;-1.43;100.00;95719.72;5025244;28;20041;-75
2021/12/03 04:12:41;;;;;;;14.03;8.33;;;;;;;-1.41;100.00;95725.56;5020836;28;20075;-76
2021/12/03 04:15:09;;;;;;;14.80;8.00;;;;;;;-1.40;100.00;95735.00;5027445;28;20029;-75
2021/12/03 04:17:35;;;;;;;12.40;7.13;;;;;;;-1.42;100.00;95739.41;5026949;28;20025;-76
2021/12/03 04:20:00;;;;;;;14.17;9.00;;;;;;;-1.40;100.00;95745.31;5025302;28;20475;-75
2021/12/03 04:22:26;;;;;;;14.37;9.60;;;;;;;-1.42;100.00;95745.38;5002852;28;20037;-76
2021/12/03 04:24:56;;;;;;;14.90;9.00;;;;;;;-1.38;100.00;95753.75;5003263;28;20034;-77
2021/12/03 04:27:22;;;;;;;12.17;8.23;;;;;;;-1.36;100.00;95761.41;5011662;28;20119;-77
2021/12/03 04:29:48;;;;;;;14.97;8.37;;;;;;;-1.34;100.00;95762.13;5012027;28;20915;-77
2021/12/03 04:32:14;;;;;;;19.43;11.47;;;;;;;-1.36;100.00;95767.38;5045146;28;20804;-77
2021/12/03 04:34:41;;;;;;;19.53;10.93;;;;;;;-1.39;100.00;95772.75;5036689;28;20470;-75
2021/12/03 04:37:06;;;;;;;20.60;9.27;;;;;;;-1.37;100.00;95772.66;5016845;28;20460;-77
2021/12/03 04:39:32;;;;;;;14.17;8.60;;;;;;;-1.36;100.00;95772.53;5019467;28;20436;-75
2021/12/03 04:42:00;;;;;;;13.30;9.07;;;;;;;-1.40;100.00;95776.25;5027045;28;20553;-77
2021/12/03 04:44:26;;;;;;;13.63;8.60;;;;;;;-1.33;100.00;95787.00;5013458;28;20486;-77
2021/12/03 04:46:52;;;;;;;13.50;9.27;;;;;;;-1.38;100.00;95789.03;5026522;28;20480;-76
2021/12/03 04:49:18;;;;;;;13.40;8.53;;;;;;;-1.21;100.00;95792.22;5017164;28;20496;-77
2021/12/03 04:51:43;;;;;;;12.07;8.13;;;;;;;-1.39;100.00;95795.13;5030436;28;20368;-77
2021/12/03 04:54:09;;;;;;;12.37;7.30;;;;;;;-1.37;100.00;95801.84;5015375;28;20531;-78
2021/12/03 04:56:35;;;;;;;15.50;8.03;;;;;;;-1.34;100.00;95799.09;5021499;28;20038;-80
2021/12/03 04:59:00;;;;;;;11.90;7.93;;;;;;;-1.38;100.00;95805.34;5022901;28;20057;-77
2021/12/03 05:01:29;;;;;;;13.70;9.27;;;;;;;-1.37;100.00;95801.84;5018111;28;20037;-77
2021/12/03 05:03:55;;;;;;;14.60;9.17;;;;;;;-1.46;100.00;95797.28;5020065;28;20037;-77
2021/12/03 05:06:29;;;;;;;13.70;7.63;;;;;;;-1.47;100.00;95806.75;5010110;28;20572;-76
2021/12/03 05:08:56;;;;;;;13.90;9.03;;;;;;;-1.47;100.00;95808.53;5013307;28;20056;-77
2021/12/03 05:11:22;;;;;;;15.53;9.93;;;;;;;-1.53;100.00;95807.13;5030574;28;21031;-76
2021/12/03 05:13:48;;;;;;;12.50;7.87;;;;;;;-1.35;100.00;95814.63;5009988;28;20468;-76
2021/12/03 05:16:14;;;;;;;11.50;7.30;;;;;;;-1.45;100.00;95806.66;5009985;28;20042;-76
2021/12/03 05:18:44;;;;;;;14.17;8.67;;;;;;;-1.48;100.00;95815.41;5008148;28;20447;-76
2021/12/03 05:21:09;;;;;;;12.93;8.07;;;;;;;-1.48;100.00;95817.16;5028949;28;21092;-76
2021/12/03 05:23:35;;;;;;;11.77;7.63;;;;;;;-1.47;100.00;95824.00;5028992;28;20456;-75
2021/12/03 05:26:03;;;;;;;13.63;7.33;;;;;;;-1.46;100.00;95823.06;5030278;28;20033;-76
2021/12/03 05:28:30;;;;;;;12.90;7.47;;;;;;;-1.42;100.00;95827.09;5029877;28;20029;-76
2021/12/03 05:30:56;;;;;;;13.40;7.93;;;;;;;-1.45;100.00;95840.19;5030297;28;20490;-75
2021/12/03 05:33:23;;;;;;;13.90;8.50;;;;;;;-1.48;100.00;95846.34;5029350;28;20429;-76
2021/12/03 05:35:49;;;;;;;11.13;7.27;;;;;;;-1.42;100.00;95842.56;5012692;28;21276;-75
2021/12/03 05:38:15;;;;;;;12.17;7.50;;;;;;;-1.44;100.00;95842.69;5029290;28;20432;-75
2021/12/03 05:40:44;;;;;;;12.07;7.80;;;;;;;-1.46;100.00;95851.44;5012780;28;20513;-76
2021/12/03 05:43:10;;;;;;;14.03;7.43;;;;;;;-1.45;100.00;95853.06;5013248;28;20107;-76
2021/12/03 05:45:37;;;;;;;12.37;7.93;;;;;;;-1.40;100.00;95853.63;5016177;28;21016;-76
2021/12/03 05:48:04;;;;;;;14.13;8.30;;;;;;;-1.44;100.00;95854.75;5034189;28;20025;-79
2021/12/03 05:50:31;;;;;;;13.80;8.93;;;;;;;-1.34;100.00;95863.56;5031909;28;20469;-79
2021/12/03 05:52:57;;;;;;;14.63;8.93;;;;;;;-1.40;100.00;95857.97;5015057;28;20464;-75
2021/12/03 05:55:24;;;;;;;17.47;10.80;;;;;;;-1.39;100.00;95868.16;4997457;28;20989;-76
2021/12/03 05:57:50;;;;;;;16.87;10.50;;;;;;;-1.40;100.00;95869.09;5036582;28;20464;-78
2021/12/03 06:00:38;;;;;;;15.57;9.63;;;;;;;-1.44;100.00;95867.66;5032729;28;20432;-77
2021/12/03 06:03:04;;;;;;;16.40;10.27;;;;;;;-1.45;100.00;95863.38;5015956;28;21000;-77
2021/12/03 06:05:31;;;;;;;15.13;10.60;;;;;;;-1.60;100.00;95861.78;5032106;28;20460;-77
2021/12/03 06:07:58;;;;;;;14.20;9.33;;;;;;;-1.61;100.00;95860.09;5031289;28;20116;-77
2021/12/03 06:10:25;;;;;;;15.83;8.83;;;;;;;-1.61;100.00;95870.41;4998646;28;20507;-77
2021/12/03 06:12:51;;;;;;;12.23;8.00;;;;;;;-1.64;100.00;95865.44;5012919;28;20429;-77
2021/12/03 06:15:19;;;;;;;13.10;8.77;;;;;;;-1.64;100.00;95873.16;5012462;28;20449;-77
2021/12/03 06:17:47;;;;;;;13.30;8.60;;;;;;;-1.63;100.00;95878.25;4995389;28;20025;-77
2021/12/03 06:20:15;;;;;;;16.57;9.70;;;;;;;-1.69;100.00;95879.44;5012462;28;20461;-77
2021/12/03 06:22:41;;;;;;;17.10;11.47;;;;;;;-1.78;100.00;95880.00;5019506;28;20467;-77
2021/12/03 06:25:12;;;;;;;17.33;10.73;;;;;;;-1.77;100.00;95886.81;5025339;28;20551;-77
2021/12/03 06:27:39;;;;;;;16.60;10.27;;;;;;;-1.78;100.00;95890.31;5031852;28;20456;-77
2021/12/03 06:30:07;;;;;;;15.47;9.53;;;;;;;-1.76;100.00;95897.97;5032110;28;20481;-77
2021/12/03 06:32:34;;;;;;;15.90;9.70;;;;;;;-1.69;100.00;95899.25;5031772;28;20452;-77
2021/12/03 06:35:00;;;;;;;14.63;8.53;;;;;;;-1.68;100.00;95895.72;5014939;28;20451;-77
2021/12/03 06:37:26;;;;;;;12.00;7.33;;;;;;;-1.68;100.00;95908.63;5031518;28;20432;-76
2021/12/03 06:39:52;;;;;;;11.63;7.20;;;;;;;-1.72;100.00;95904.59;5032629;28;20416;-77
2021/12/03 06:42:17;;;;;;;11.13;6.83;;;;;;;-1.82;100.00;95911.22;5014289;28;20091;-76
2021/12/03 06:44:43;;;;;;;12.57;8.43;;;;;;;-1.91;100.00;95910.03;5031254;28;20037;-78
2021/12/03 06:47:09;;;;;;;16.53;10.07;;;;;;;-1.95;100.00;95924.81;5014970;28;20056;-76
2021/12/03 06:49:41;;;;;;;17.73;10.37;;;;;;;-2.03;100.00;95931.34;5032530;28;20095;-76
2021/12/03 06:52:10;;;;;;;17.47;10.60;;;;;;;-2.03;100.00;95929.59;5014909;28;20608;-77
2021/12/03 06:54:36;;;;;;;13.30;8.83;;;;;;;-2.09;100.00;95942.00;5035991;28;20482;-76
2021/12/03 06:57:06;;;;;;;13.23;8.93;;;;;;;-2.11;100.00;95947.28;5045873;28;20454;-76
2021/12/03 06:59:32;;;;;;;11.97;7.80;;;;;;;-2.06;100.00;95947.00;5032316;28;20037;-77
2021/12/03 07:01:58;;;;;;;19.17;9.43;;;;;;;-1.99;100.00;95948.28;5011598;28;21027;-76
2021/12/03 07:04:24;;;;;;;14.03;8.60;;;;;;;-1.98;100.00;95949.94;5040884;28;20518;-77
2021/12/03 07:06:51;;;;;;;20.47;10.10;;;;;;;-1.96;100.00;95950.69;5051739;28;20427;-77
2021/12/03 07:09:17;;;;;;;19.33;11.73;;;;;;;-1.91;100.00;95946.09;5034409;28;20517;-79
2021/12/03 07:11:43;;;;;;;21.83;12.47;;;;;;;-1.92;100.00;95955.56;5051013;28;20458;-76
2021/12/03 07:14:09;;;;;;;19.60;12.63;;;;;;;-1.87;100.00;95955.31;5038023;28;20432;-77
2021/12/03 07:16:35;;;;;;;23.47;13.90;;;;;;;-1.81;100.00;95964.41;5014496;28;20546;-77
2021/12/03 07:19:01;;;;;;;19.77;13.23;;;;;;;-1.77;100.00;95959.00;5030943;28;20513;-76
2021/12/03 07:21:28;;;;;;;18.27;12.27;;;;;;;-1.73;100.00;95959.66;5015351;28;20513;-77
2021/12/03 07:23:54;;;;;;;16.67;11.03;;;;;;;-1.79;100.00;95958.25;5014596;28;20452;-77
2021/12/03 07:26:22;;;;;;;16.63;11.03;;;;;;;-1.71;100.00;95957.78;5014408;28;20029;-76
2021/12/03 07:28:48;;;;;;;15.83;9.80;;;;;;;-1.67;100.00;95959.28;5014464;28;20464;-77
2021/12/03 07:31:14;;;;;;;14.17;9.77;;;;;;;-1.66;100.00;95961.75;5030500;28;20559;-76
2021/12/03 07:33:40;;;;;;;16.70;10.67;;;;;;;-1.63;100.00;95962.50;5011207;28;20026;-77
2021/12/03 07:36:06;;;;;;;18.53;10.17;;;;;;;-1.69;100.00;95969.66;5010908;28;20969;-76
2021/12/03 07:38:33;;;;;;;15.57;9.50;;;;;;;-1.67;100.00;95974.75;5010671;28;20084;-77
2021/12/03 07:40:59;;;;;;;15.90;9.03;;;;;;;-1.66;100.00;95972.06;5012127;28;20464;-75
2021/12/03 07:43:25;;;;;;;16.87;9.53;;;;;;;-1.58;100.00;95974.19;5027046;28;20539;-76
2021/12/03 07:45:51;;;;;;;15.27;9.13;;;;;;;-1.56;100.00;95976.69;5027081;28;20552;-76
2021/12/03 07:48:21;;;;;;;17.30;10.03;;;;;;;-1.72;100.00;95975.00;5007845;28;20581;-76
2021/12/03 07:50:48;;;;;;;16.03;9.73;;;;;;;-1.60;100.00;95977.81;5011902;28;20034;-77
2021/12/03 07:53:18;;;;;;;17.83;10.93;;;;;;;-1.56;100.00;95981.84;5012131;28;20424;-76
2021/12/03 07:55:48;;;;;;;19.47;10.20;;;;;;;-1.59;100.00;95977.69;5026634;28;20799;-77
2021/12/03 07:58:17;;;;;;;18.50;10.30;;;;;;;-1.66;100.00;95986.72;4993925;28;20568;-75
2021/12/03 08:00:44;;;;;;;17.20;10.77;;;;;;;-1.62;100.00;95988.19;5010911;28;20424;-76
2021/12/03 08:03:12;;;;;;;16.77;10.00;;;;;;;-1.63;100.00;95991.69;5011391;28;20457;-76
2021/12/03 08:05:38;;;;;;;16.93;9.87;;;;;;;-1.63;100.00;96003.75;5011474;28;20461;-76
2021/12/03 08:08:05;;;;;;;17.87;9.63;;;;;;;-1.57;100.00;95993.09;5030296;28;20481;-76
2021/12/03 08:10:34;;;;;;;17.40;10.10;;;;;;;-1.66;100.00;95994.44;5037095;28;20804;-77
2021/12/03 08:13:00;;;;;;;14.00;9.47;;;;;;;-1.62;100.00;95995.91;5036431;28;20459;-76
2021/12/03 08:15:25;;;;;;;18.37;10.63;;;;;;;-1.63;100.00;95996.84;5052180;28;20459;-77
2021/12/03 08:17:51;;;;;;;16.80;10.10;;;;;;;-1.52;100.00;95993.63;5035746;28;20462;-76
2021/12/03 08:20:18;;;;;;;19.00;11.70;;;;;;;-1.51;100.00;95998.72;5035439;28;20470;-76
2021/12/03 08:22:44;;;;;;;21.37;11.13;;;;;;;-1.55;100.00;95988.66;5052719;28;20650;-76
2021/12/03 08:25:12;;;;;;;18.50;11.37;;;;;;;-1.67;100.00;95995.38;5050321;28;20526;-76
2021/12/03 08:27:39;;;;;;;17.50;10.70;;;;;;;-1.01;100.00;95978.47;5050152;28;20098;-76
2021/12/03 08:30:06;;;;;;;19.07;11.93;;;;;;;-1.35;100.00;95990.88;5033414;28;20462;-76
2021/12/03 08:32:32;;;;;;;19.47;11.50;;;;;;;-0.90;100.00;95983.81;5051305;28;20483;-76
2021/12/03 08:34:58;;;;;;;17.07;11.37;;;;;;;-0.15;100.00;95991.13;5050347;28;20483;-76
2021/12/03 08:37:25;;;;;;;18.57;9.27;;;;;;;-0.16;100.00;95998.06;5050148;28;20075;-76
2021/12/03 08:39:51;;;;;;;14.83;10.10;;;;;;;0.11;100.00;96003.19;5050728;28;20464;-76
2021/12/03 08:42:18;;;;;;;16.13;10.67;;;;;;;0.17;100.00;96010.53;5033985;28;20485;-77
2021/12/03 08:44:45;;;;;;;18.43;10.20;;;;;;;0.15;100.00;96012.38;5033588;28;20458;-77
2021/12/03 08:47:11;;;;;;;16.57;9.83;;;;;;;-0.11;100.00;96013.25;5051728;28;20507;-76
2021/12/03 08:49:39;;;;;;;15.87;9.57;;;;;;;0.65;100.00;96010.78;5050598;28;20547;-77
2021/12/03 08:54:55;;;;;;;13.13;8.50;;;;;;;0.58;100.00;96009.53;5051684;28;20478;-77
2021/12/03 08:57:30;;;;;;;15.73;9.00;;;;;;;0.23;100.00;96019.63;5034792;28;20047;-76
2021/12/03 09:00:17;;;;;;;14.00;8.83;;;;;;;0.61;100.00;96013.69;5034895;28;20542;-77
2021/12/03 09:02:43;;;;;;;13.27;8.37;;;;;;;1.43;100.00;96007.09;5051394;28;20837;-76
2021/12/03 09:05:11;;;;;;;15.40;8.67;;;;;;;1.60;100.00;96003.31;5035470;28;20805;-77
2021/12/03 09:07:38;;;;;;;12.53;8.47;;;;;;;1.69;100.00;96001.84;5051888;28;20040;-77
2021/12/03 09:10:07;;;;;;;13.37;8.67;;;;;;;1.80;100.00;96002.69;5052391;28;20064;-77
2021/12/03 09:12:33;;;;;;;15.63;9.53;;;;;;;1.95;100.00;96008.56;5051733;28;20068;-76
2021/12/03 09:15:02;;;;;;;13.23;8.93;;;;;;;1.58;100.00;96010.38;5033764;28;20028;-76
2021/12/03 09:22:44;;;;;;;11.87;7.00;;;;;;;2.47;97.77;96015.06;5055141;28;20116;-75
2021/12/03 09:25:16;;;;;;;11.80;7.50;;;;;;;2.90;98.91;95998.84;5054341;28;20069;-77
2021/12/03 09:27:45;;;;;;;13.17;7.57;;;;;;;2.49;99.29;96005.41;5054683;28;20105;-76
2021/12/03 09:30:14;;;;;;;11.47;7.23;;;;;;;1.99;100.00;95999.59;5054185;28;20033;-75
2021/12/03 09:32:43;;;;;;;12.97;8.20;;;;;;;2.11;100.00;96003.06;5038835;28;20485;-77
2021/12/03 09:35:09;;;;;;;13.03;9.10;;;;;;;2.47;100.00;95993.47;5038615;28;20414;-76
2021/12/03 09:37:35;;;;;;;13.37;8.60;;;;;;;1.56;100.00;96010.47;5054550;28;20033;-76
2021/12/03 09:40:06;;;;;;;14.07;7.27;;;;;;;1.39;100.00;96003.09;5054032;28;20039;-75
2021/12/03 09:42:36;;;;;;;14.40;7.00;;;;;;;0.98;100.00;96006.00;5055150;28;20036;-77
2021/12/03 09:45:03;;;;;;;11.60;6.80;;;;;;;1.01;100.00;96006.59;5036927;28;20123;-78
2021/12/03 09:47:28;;;;;;;13.90;6.83;;;;;;;0.68;100.00;96000.22;5054041;28;20535;-77
2021/12/03 09:49:56;;;;;;;10.63;6.77;;;;;;;0.23;100.00;96001.53;5037197;28;20035;-77
2021/12/03 09:52:46;;;;;;;9.63;5.90;;;;;;;0.23;100.00;96004.13;5054126;28;20124;-77
2021/12/03 09:55:14;;;;;;;12.37;7.40;;;;;;;-0.10;100.00;96001.97;5036887;28;20056;-75
2021/12/03 10:00:56;;;;;;;14.20;8.70;;;;;;;-0.34;100.00;95994.88;5072131;28;20032;-77
2021/12/03 10:14:42;;;;;;;14.03;9.00;;;;;;;-0.62;100.00;95984.69;5056261;28;20473;-77
2021/12/03 10:17:36;;;;;;;14.47;8.47;;;;;;;-0.68;100.00;95985.88;5055077;28;20493;-80
2021/12/03 10:20:24;;;;;;;12.90;8.07;;;;;;;-0.61;100.00;95992.31;5056314;28;20419;-75
2021/12/03 10:36:49;;;;;;;11.40;6.87;;;;;;;2.19;100.00;95979.16;5061384;28;20021;-76
2021/12/03 10:39:34;;;;;;;9.98;5.50;;;;;;;2.23;95.32;95972.78;5066851;28;20445;-77
2021/12/03 10:45:44;;;;;;;6.83;4.20;;;;;;;2.29;92.23;95961.97;5064535;28;20043;-76
2021/12/03 11:06:44;;;;;;;9.30;4.00;;;;;;;2.97;89.10;95948.06;5053401;28;20114;-75
2021/12/03 11:17:31;;;;;;;7.23;3.93;;;;;;;2.65;90.21;95945.38;5032712;28;20120;-76
2021/12/03 11:42:27;;;;;;;5.70;2.60;;;;;;;2.82;87.15;95920.69;5043711;28;20053;-77
2021/12/03 14:38:53;;;;;;;6.57;3.57;;;;;;;0.72;97.43;95824.84;5026451;28;20484;-76
2021/12/03 14:44:59;;;;;;;7.07;3.27;;;;;;;0.57;97.94;95813.81;5021630;28;20049;-76
2021/12/03 14:50:48;;;;;;;7.70;3.67;;;;;;;0.45;99.53;95817.28;5038041;28;20889;-76
2021/12/03 14:53:38;;;;;;;8.97;3.93;;;;;;;0.46;99.89;95824.91;5018601;28;20468;-78
2021/12/03 14:56:11;;;;;;;8.20;3.50;;;;;;;0.50;100.00;95824.69;5024527;28;20499;-77
2021/12/03 14:58:51;;;;;;;12.07;4.73;;;;;;;0.40;100.00;95824.50;5005227;28;20476;-77
2021/12/03 15:01:39;;;;;;;6.57;3.93;;;;;;;0.38;100.00;95823.81;5010875;28;20468;-77
2021/12/03 15:07:08;;;;;;;11.80;5.85;;;;;;;0.28;100.00;95799.53;5020449;28;20472;-76
2021/12/03 15:09:37;;;;;;;12.20;5.87;;;;;;;0.25;100.00;95805.72;5020110;28;20045;-76
2021/12/03 15:20:22;;;;;;;50.33;29.50;;;;;;;0.07;100.00;95807.84;5019059;28;20449;-77
2021/12/03 15:30:45;;;;;;;21.63;9.20;;;;;;;0.10;100.00;95799.00;5033470;28;20464;-76
2021/12/03 15:35:53;;;;;;;26.13;11.83;;;;;;;-0.07;100.00;95815.69;5024802;28;20475;-76
2021/12/03 15:38:29;;;;;;;12.57;6.20;;;;;;;-0.03;100.00;95804.22;5012033;28;20045;-75
2021/12/03 15:52:29;;;;;;;11.50;5.10;;;;;;;-0.26;100.00;95801.44;5021345;28;20514;-76
2021/12/03 15:57:21;;;;;;;11.70;4.87;;;;;;;-0.35;100.00;95788.31;5021531;28;20037;-76
2021/12/03 16:11:18;;;;;;;14.47;7.30;;;;;;;-0.55;100.00;95772.41;5021167;28;20095;-75
2021/12/03 16:18:53;;;;;;;10.53;5.17;;;;;;;-0.58;100.00;95784.69;5021236;28;20560;-76
2021/12/03 16:27:54;;;;;;;7.00;3.63;;;;;;;-0.64;100.00;95783.31;5043589;28;20467;-76
2021/12/03 16:44:14;;;;;;;8.33;4.37;;;;;;;-0.59;100.00;95744.31;5015808;28;20547;-76
2021/12/03 16:51:57;;;;;;;10.00;4.47;;;;;;;-0.60;100.00;95734.91;5020596;28;20501;-74
2021/12/03 16:54:31;;;;;;;10.07;4.73;;;;;;;-0.64;100.00;95723.13;5019474;28;20545;-74
2021/12/03 16:56:57;;;;;;;7.37;3.77;;;;;;;-0.69;100.00;95727.78;5021573;28;20494;-75
2021/12/03 16:59:25;;;;;;;10.50;4.90;;;;;;;-0.80;100.00;95729.31;5012856;28;20504;-79
2021/12/03 17:02:01;;;;;;;9.90;4.50;;;;;;;-0.74;100.00;95728.06;5025434;28;20087;-77
2021/12/03 17:12:22;;;;;;;10.97;5.67;;;;;;;-0.87;100.00;95738.41;5021671;28;20052;-76
2021/12/03 17:18:02;;;;;;;8.13;4.90;;;;;;;-0.88;100.00;95734.16;5012083;28;20453;-76
2021/12/03 17:47:43;;;;;;;9.80;5.47;;;;;;;-1.05;100.00;95711.22;5026354;28;20736;-75